Time;durP1;ratioP1;P1;durP2;ratioP2;P2;SDS_P1;SDS_P2;PMS_P1;PMS_P2;Temp;Humidity;BMP_temperature;BMP_pressure;BME280_temperature;BME280_humidity;BME280_pressure;Samples;Min_cycle;Max_cycle;Signal;HPM_P1;HPM_P2
2021/09/16 04:16:20;;;;;;;4.70;3.83;;;;;;;16.13;100.00;98584.09;5533429;23;20049;-79
2021/09/16 04:18:46;;;;;;;4.25;3.30;;;;;;;16.22;100.00;98580.22;4974737;28;20027;-78
2021/09/16 04:21:11;;;;;;;7.55;3.95;;;;;;;16.24;100.00;98570.53;4974454;28;20033;-79
2021/09/16 04:23:36;;;;;;;4.72;3.38;;;;;;;16.26;100.00;98583.56;4974718;28;20106;-79
2021/09/16 04:26:02;;;;;;;6.88;3.50;;;;;;;16.23;100.00;98573.22;4974576;28;20042;-79
2021/09/16 04:28:28;;;;;;;6.80;4.30;;;;;;;16.15;100.00;98577.06;4974364;28;20027;-79
2021/09/16 04:30:53;;;;;;;7.85;4.18;;;;;;;16.13;100.00;98573.63;4975067;28;20030;-72
2021/09/16 04:33:20;;;;;;;6.35;4.60;;;;;;;16.13;100.00;98573.63;4967410;28;20034;-72
2021/09/16 04:35:46;;;;;;;10.55;4.30;;;;;;;16.11;100.00;98580.72;4968203;28;20038;-73
2021/09/16 04:38:11;;;;;;;5.22;3.75;;;;;;;16.14;100.00;98575.31;4974653;28;20026;-74
2021/09/16 04:40:36;;;;;;;6.07;4.20;;;;;;;16.19;100.00;98578.59;4974356;28;20118;-74
2021/09/16 04:43:02;;;;;;;4.80;3.45;;;;;;;16.16;100.00;98580.50;4974157;28;20031;-74
2021/09/16 04:45:27;;;;;;;5.22;3.30;;;;;;;16.22;100.00;98589.84;4974155;28;20031;-74
2021/09/16 04:47:52;;;;;;;6.65;3.38;;;;;;;16.28;100.00;98584.34;4973240;28;20460;-74
2021/09/16 04:50:18;;;;;;;4.95;3.70;;;;;;;16.28;100.00;98581.72;4967839;28;20027;-75
2021/09/16 04:52:43;;;;;;;4.00;2.92;;;;;;;16.35;100.00;98583.16;4954849;28;20034;-75
2021/09/16 04:55:09;;;;;;;4.68;2.90;;;;;;;16.32;100.00;98583.28;4954650;28;20028;-75
2021/09/16 04:57:35;;;;;;;5.20;2.85;;;;;;;16.29;100.00;98583.41;4954707;28;20046;-74
2021/09/16 05:00:01;;;;;;;6.13;2.40;;;;;;;16.31;100.00;98581.59;4954625;28;20034;-75
2021/09/16 05:02:27;;;;;;;6.97;2.88;;;;;;;16.35;100.00;98584.00;4957755;28;20382;-75
2021/09/16 05:04:52;;;;;;;4.53;2.25;;;;;;;16.33;100.00;98592.81;4965553;28;20022;-75
2021/09/16 05:07:17;;;;;;;2.72;2.20;;;;;;;16.30;100.00;98588.59;4973810;28;20018;-74
2021/09/16 05:09:42;;;;;;;4.25;2.13;;;;;;;16.31;100.00;98584.22;4973706;28;20472;-74
2021/09/16 05:12:08;;;;;;;2.88;2.05;;;;;;;16.37;100.00;98586.53;4973586;28;20073;-74
2021/09/16 05:14:33;;;;;;;2.20;2.00;;;;;;;16.47;100.00;98577.38;4973572;28;20034;-74
2021/09/16 05:16:59;;;;;;;3.25;2.25;;;;;;;16.48;100.00;98586.91;4973471;28;20081;-73
2021/09/16 05:19:24;;;;;;;5.28;2.10;;;;;;;16.47;100.00;98587.84;4973593;28;20034;-72
2021/09/16 05:21:49;;;;;;;2.97;1.55;;;;;;;16.41;100.00;98588.13;4954201;28;20031;-73
2021/09/16 05:24:18;;;;;;;2.90;1.90;;;;;;;16.46;100.00;98586.13;4954311;28;20082;-72
2021/09/16 05:26:45;;;;;;;4.47;1.90;;;;;;;16.46;100.00;98596.59;4953974;28;20023;-75
2021/09/16 05:29:10;;;;;;;3.67;1.70;;;;;;;16.43;100.00;98597.56;4954244;28;20455;-73
2021/09/16 05:31:36;;;;;;;2.20;1.88;;;;;;;16.41;100.00;98590.72;4953832;28;20103;-71
2021/09/16 05:34:02;;;;;;;2.80;1.90;;;;;;;16.43;100.00;98591.50;4961844;28;20058;-72
2021/09/16 05:36:27;;;;;;;3.92;2.08;;;;;;;16.45;100.00;98597.53;4952232;28;20025;-72
2021/09/16 05:38:52;;;;;;;5.72;1.80;;;;;;;16.44;100.00;98593.22;4953753;28;20059;-72
2021/09/16 05:41:18;;;;;;;3.80;2.20;;;;;;;16.45;100.00;98589.69;4953713;28;20122;-71
2021/09/16 05:43:43;;;;;;;4.07;2.00;;;;;;;16.43;100.00;98594.97;4953991;28;20095;-72
2021/09/16 05:46:09;;;;;;;8.38;2.30;;;;;;;16.43;100.00;98594.09;4953895;28;20129;-72
2021/09/16 05:48:34;;;;;;;28.40;10.85;;;;;;;16.44;100.00;98594.06;4953809;28;20034;-72
2021/09/16 05:50:59;;;;;;;87.40;25.98;;;;;;;16.48;100.00;98601.75;4953751;28;20465;-72
2021/09/16 05:53:24;;;;;;;50.45;17.85;;;;;;;16.54;100.00;98604.97;4953692;28;20122;-72
2021/09/16 05:55:50;;;;;;;35.15;12.00;;;;;;;16.62;100.00;98608.06;4953686;28;20059;-72
2021/09/16 05:58:15;;;;;;;10.35;5.60;;;;;;;16.57;100.00;98615.25;4953766;28;20114;-72
2021/09/16 06:00:40;;;;;;;10.20;4.63;;;;;;;16.57;100.00;98615.25;4953805;28;20027;-72
2021/09/16 06:03:06;;;;;;;8.02;4.50;;;;;;;16.56;100.00;98613.56;4958179;28;20027;-72
2021/09/16 06:05:31;;;;;;;8.23;4.22;;;;;;;16.59;100.00;98618.69;4961431;28;20042;-72
2021/09/16 06:07:56;;;;;;;9.60;4.90;;;;;;;16.60;100.00;98614.28;4953953;28;20106;-72
2021/09/16 06:10:22;;;;;;;9.52;4.25;;;;;;;16.59;100.00;98608.22;4953787;28;20069;-73
2021/09/16 06:12:47;;;;;;;10.57;4.70;;;;;;;16.60;100.00;98614.28;4953468;28;20118;-73
2021/09/16 06:15:12;;;;;;;11.05;4.70;;;;;;;16.64;100.00;98616.72;4953560;28;20380;-72
2021/09/16 06:17:38;;;;;;;7.95;4.88;;;;;;;16.56;100.00;98610.97;4953605;28;20035;-73
2021/09/16 06:20:06;;;;;;;11.50;4.50;;;;;;;16.54;100.00;98612.81;4953640;28;20069;-73
2021/09/16 06:22:31;;;;;;;10.52;3.55;;;;;;;16.57;100.00;98610.03;4953369;28;20031;-72
2021/09/16 06:24:57;;;;;;;7.38;3.63;;;;;;;16.53;100.00;98608.47;4953706;28;20033;-73
2021/09/16 06:27:22;;;;;;;8.77;4.15;;;;;;;16.57;100.00;98610.03;4953578;28;20468;-73
2021/09/16 06:29:47;;;;;;;14.90;4.03;;;;;;;16.58;100.00;98616.97;4953472;28;20477;-73
2021/09/16 06:32:13;;;;;;;11.82;4.95;;;;;;;16.60;100.00;98620.38;4959126;28;20464;-73
2021/09/16 06:34:38;;;;;;;11.55;4.60;;;;;;;16.51;100.00;98615.53;4965113;28;20031;-73
2021/09/16 06:37:03;;;;;;;11.93;4.90;;;;;;;16.56;100.00;98613.56;4957313;28;20062;-72
2021/09/16 06:39:29;;;;;;;10.30;4.70;;;;;;;16.63;100.00;98621.97;4957223;28;20035;-73
2021/09/16 06:41:54;;;;;;;10.80;3.95;;;;;;;16.72;100.00;98618.13;4957361;28;20456;-73
2021/09/16 06:44:20;;;;;;;8.95;4.20;;;;;;;16.78;100.00;98613.50;4957200;28;20026;-73
2021/09/16 06:46:45;;;;;;;8.75;4.47;;;;;;;16.70;100.00;98619.03;4957134;28;20071;-72
2021/09/16 06:49:11;;;;;;;13.60;4.30;;;;;;;16.79;100.00;98619.56;4957005;28;20093;-73
2021/09/16 06:51:36;;;;;;;10.55;4.55;;;;;;;16.85;100.00;98622.75;4957006;28;20035;-73
2021/09/16 06:54:01;;;;;;;12.80;4.57;;;;;;;16.95;100.00;98625.78;4956934;28;20114;-73
2021/09/16 06:56:27;;;;;;;9.13;3.88;;;;;;;17.00;100.00;98626.44;4955659;28;20058;-74
2021/09/16 06:58:52;;;;;;;12.57;4.13;;;;;;;17.09;100.00;98625.16;4956901;28;20415;-73
2021/09/16 07:01:18;;;;;;;9.60;4.47;;;;;;;17.14;100.00;98624.00;4956748;28;20043;-73
2021/09/16 07:03:43;;;;;;;8.63;3.75;;;;;;;17.15;100.00;98625.69;4966406;28;20549;-73
2021/09/16 07:06:08;;;;;;;9.10;4.30;;;;;;;17.12;100.00;98625.88;4959691;28;20109;-73
2021/09/16 07:08:34;;;;;;;14.45;4.78;;;;;;;17.09;100.00;98631.22;4956797;28;20027;-73
2021/09/16 07:10:59;;;;;;;10.18;3.88;;;;;;;17.11;100.00;98632.00;4955397;28;20023;-73
2021/09/16 07:13:24;;;;;;;9.82;3.70;;;;;;;17.01;100.00;98630.72;4956418;28;20063;-73
2021/09/16 07:15:50;;;;;;;8.48;3.20;;;;;;;17.12;100.00;98632.88;4956369;28;20039;-73
2021/09/16 07:18:15;;;;;;;5.65;3.50;;;;;;;17.12;100.00;98628.47;4956566;28;20046;-73
2021/09/16 07:20:40;;;;;;;5.57;2.97;;;;;;;17.16;100.00;98640.50;4956523;28;20433;-73
2021/09/16 07:23:06;;;;;;;3.65;2.63;;;;;;;17.21;100.00;98638.53;4956319;28;20029;-73
2021/09/16 07:25:31;;;;;;;5.53;2.50;;;;;;;17.16;100.00;98643.13;4956289;28;20054;-73
2021/09/16 07:27:57;;;;;;;5.22;2.38;;;;;;;17.19;100.00;98644.75;4956446;28;20467;-73
2021/09/16 07:30:22;;;;;;;8.82;4.25;;;;;;;17.23;100.00;98650.69;4956317;28;20039;-72
2021/09/16 07:32:47;;;;;;;9.07;4.30;;;;;;;17.19;100.00;98634.28;4961556;28;20022;-73
2021/09/16 07:35:13;;;;;;;7.13;3.80;;;;;;;17.24;100.00;98641.91;4966041;28;20030;-73
2021/09/16 07:37:38;;;;;;;9.27;4.78;;;;;;;17.33;100.00;98646.72;4975535;28;20539;-73
2021/09/16 07:40:04;;;;;;;5.63;3.72;;;;;;;17.41;100.00;98649.81;4975780;28;20038;-73
2021/09/16 07:42:30;;;;;;;6.80;4.22;;;;;;;17.49;100.00;98658.16;4975206;28;20032;-73
2021/09/16 07:44:56;;;;;;;7.55;3.15;;;;;;;17.56;100.00;98656.94;4974531;28;20061;-72
2021/09/16 07:47:21;;;;;;;4.75;2.63;;;;;;;17.79;100.00;98655.84;4975153;28;20023;-72
2021/09/16 07:49:47;;;;;;;4.78;2.33;;;;;;;17.75;100.00;98667.41;4973269;28;20038;-72
2021/09/16 07:52:13;;;;;;;2.92;2.50;;;;;;;17.84;100.00;98663.47;4955806;28;20405;-74
2021/09/16 07:54:39;;;;;;;4.28;2.05;;;;;;;17.78;100.00;98669.03;4955863;28;20485;-73
2021/09/16 07:57:05;;;;;;;7.25;2.80;;;;;;;17.88;100.00;98665.03;4955793;28;20028;-73
2021/09/16 07:59:30;;;;;;;6.15;2.45;;;;;;;18.00;100.00;98668.81;4955859;28;20027;-73
2021/09/16 08:01:56;;;;;;;5.30;2.35;;;;;;;18.19;100.00;98673.06;4955504;28;20444;-73
2021/09/16 08:04:21;;;;;;;5.65;2.60;;;;;;;18.14;100.00;98676.84;4965769;28;20027;-73
2021/09/16 08:06:47;;;;;;;7.00;2.97;;;;;;;18.16;100.00;98675.84;4974847;28;20023;-73
2021/09/16 08:09:12;;;;;;;9.32;2.85;;;;;;;18.17;100.00;98672.28;4974996;28;20420;-73
2021/09/16 08:11:39;;;;;;;6.93;3.03;;;;;;;18.14;100.00;98677.69;4973617;28;20388;-73
2021/09/16 08:14:05;;;;;;;5.93;3.47;;;;;;;17.94;100.00;98685.72;4974676;28;20484;-73
2021/09/16 08:16:30;;;;;;;6.57;3.20;;;;;;;17.82;100.00;98691.53;4974584;28;20475;-73
2021/09/16 08:18:55;;;;;;;4.32;2.88;;;;;;;17.78;100.00;98690.00;4973446;28;20038;-73
2021/09/16 08:21:22;;;;;;;6.75;4.18;;;;;;;17.76;100.00;98686.59;4960019;28;20061;-72
2021/09/16 08:23:47;;;;;;;7.63;3.22;;;;;;;17.80;100.00;98689.00;4955311;28;20030;-73
2021/09/16 08:26:13;;;;;;;9.93;3.42;;;;;;;17.82;100.00;98691.53;4955308;28;20476;-73
2021/09/16 08:28:39;;;;;;;9.57;4.05;;;;;;;17.64;100.00;98690.63;4955336;28;20038;-73
2021/09/16 08:31:05;;;;;;;5.90;3.42;;;;;;;17.69;100.00;98701.72;4955118;28;20031;-73
2021/09/16 08:33:31;;;;;;;8.95;4.30;;;;;;;17.71;100.00;98699.91;4963015;28;20023;-73
2021/09/16 08:35:56;;;;;;;12.35;4.47;;;;;;;17.66;100.00;98707.97;4969994;28;20487;-73
2021/09/16 08:38:22;;;;;;;13.50;4.90;;;;;;;17.69;100.00;98707.81;4974324;28;20097;-73
2021/09/16 08:40:47;;;;;;;11.70;4.43;;;;;;;17.62;100.00;98709.03;4974441;28;20110;-73
2021/09/16 08:43:13;;;;;;;9.85;3.53;;;;;;;17.60;100.00;98708.28;4974261;28;20395;-73
2021/09/16 08:45:39;;;;;;;4.80;3.70;;;;;;;17.48;100.00;98714.09;4974203;28;20025;-73
2021/09/16 08:48:04;;;;;;;8.65;3.55;;;;;;;17.50;100.00;98712.22;4974201;28;20035;-73
2021/09/16 08:50:30;;;;;;;4.22;3.38;;;;;;;17.39;100.00;98712.75;4966354;28;20054;-73
2021/09/16 08:52:55;;;;;;;3.78;3.05;;;;;;;17.27;100.00;98720.34;4953370;29;20480;-73
2021/09/16 08:55:23;;;;;;;6.32;3.97;;;;;;;17.12;100.00;98711.41;4954431;28;20023;-73
2021/09/16 08:58:02;;;;;;;7.35;4.60;;;;;;;17.20;100.00;98720.59;4954856;28;20027;-73
2021/09/16 09:00:29;;;;;;;6.90;4.50;;;;;;;17.25;100.00;98722.16;4954697;28;20023;-73
2021/09/16 09:02:56;;;;;;;8.70;5.82;;;;;;;17.15;100.00;98727.81;4960982;28;20448;-73
2021/09/16 09:05:22;;;;;;;7.40;5.93;;;;;;;17.09;100.00;98728.09;4965691;28;20038;-73
2021/09/16 09:07:51;;;;;;;6.88;5.70;;;;;;;17.19;100.00;98729.38;4973872;28;20031;-73
2021/09/16 09:10:47;;;;;;;10.23;6.97;;;;;;;17.19;100.00;98726.75;4973817;28;20086;-72
2021/09/16 09:13:19;;;;;;;6.90;5.20;;;;;;;17.19;100.00;98729.38;4973607;28;20026;-72
2021/09/16 09:15:48;;;;;;;6.57;4.93;;;;;;;17.28;100.00;98729.88;4973504;28;20039;-72
2021/09/16 09:18:16;;;;;;;10.43;4.60;;;;;;;17.31;100.00;98734.97;4973710;28;20483;-72
2021/09/16 09:20:53;;;;;;;4.45;2.50;;;;;;;17.57;100.00;98739.00;4964182;28;20038;-72
2021/09/16 09:23:28;;;;;;;1.42;1.33;;;;;;;17.51;100.00;98744.56;4954072;28;20027;-72
2021/09/16 09:25:55;;;;;;;1.08;1.08;;;;;;;17.81;100.00;98731.78;4954053;28;20472;-72
2021/09/16 09:28:33;;;;;;;0.80;0.80;;;;;;;17.96;100.00;98741.53;4954297;28;20027;-72
2021/09/16 09:31:01;;;;;;;9.15;5.65;;;;;;;18.09;100.00;98736.53;4954165;28;20503;-72
2021/09/16 09:33:31;;;;;;;0.90;0.90;;;;;;;17.93;100.00;98741.66;4961747;28;20126;-73
2021/09/16 09:36:05;;;;;;;8.07;1.08;;;;;;;18.30;98.53;98739.88;4968761;28;20026;-73
2021/09/16 09:38:31;;;;;;;4.50;1.30;;;;;;;18.18;98.57;98746.56;4973534;28;20057;-73
2021/09/16 09:41:00;;;;;;;0.90;0.90;;;;;;;17.90;98.76;98741.84;4973200;28;20118;-73
2021/09/16 09:43:33;;;;;;;1.88;1.77;;;;;;;17.67;99.26;98751.59;4973239;28;20031;-73
2021/09/16 09:46:13;;;;;;;3.08;1.80;;;;;;;17.41;100.00;98746.75;4973106;28;20383;-74
2021/09/16 09:48:45;;;;;;;4.28;2.42;;;;;;;17.40;100.00;98747.63;4973260;28;20392;-74
2021/09/16 09:51:13;;;;;;;5.25;2.60;;;;;;;17.33;100.00;98748.84;4959678;28;20034;-74
2021/09/16 09:53:44;;;;;;;5.85;3.13;;;;;;;17.14;100.00;98757.53;4953860;28;20034;-73
2021/09/16 09:56:12;;;;;;;4.63;3.10;;;;;;;17.10;100.00;98755.13;4953692;28;20513;-74
2021/09/16 09:58:38;;;;;;;3.92;3.53;;;;;;;17.09;100.00;98761.28;4953802;28;20031;-73
2021/09/16 10:01:26;;;;;;;4.88;3.67;;;;;;;17.16;100.00;98766.19;4953681;28;20035;-73
2021/09/16 10:03:52;;;;;;;3.53;3.22;;;;;;;17.13;100.00;98755.84;4960321;28;20054;-75
2021/09/16 10:06:17;;;;;;;5.03;3.60;;;;;;;17.15;100.00;98759.25;4970718;28;20067;-74
2021/09/16 10:08:42;;;;;;;4.60;3.63;;;;;;;17.29;100.00;98761.25;4972765;28;20038;-73
2021/09/16 10:11:08;;;;;;;3.80;3.50;;;;;;;17.17;100.00;98764.44;4972843;28;20027;-73
2021/09/16 10:13:34;;;;;;;4.40;4.00;;;;;;;16.93;100.00;98763.75;4972798;28;20113;-74
2021/09/16 10:16:05;;;;;;;15.93;9.75;;;;;;;17.26;100.00;98771.00;4973049;28;20027;-79
2021/09/16 10:18:32;;;;;;;11.75;8.95;;;;;;;17.25;100.00;98772.75;4972913;28;20030;-79
2021/09/16 10:21:00;;;;;;;5.88;4.40;;;;;;;16.84;98.54;98766.75;4961361;28;20023;-79
2021/09/16 10:23:28;;;;;;;5.38;4.93;;;;;;;17.44;100.00;98759.69;4953233;28;20023;-79
2021/09/16 10:25:54;;;;;;;5.95;4.72;;;;;;;17.79;98.63;98767.69;4953464;28;20027;-79
2021/09/16 10:28:21;;;;;;;4.55;4.07;;;;;;;17.46;98.15;98768.34;4953429;28;20031;-79
2021/09/16 10:30:47;;;;;;;5.03;4.63;;;;;;;17.49;98.49;98783.91;4953988;28;20031;-72
2021/09/16 10:33:16;;;;;;;4.60;4.20;;;;;;;17.97;97.22;98764.19;4961034;28;20113;-72
2021/09/16 10:36:07;;;;;;;5.65;5.05;;;;;;;17.35;98.40;98776.66;4965970;28;20030;-72
2021/09/16 10:38:39;;;;;;;6.15;5.50;;;;;;;16.79;99.32;98766.13;4972630;28;20058;-72
2021/09/16 10:41:17;;;;;;;10.82;6.43;;;;;;;16.83;99.81;98773.78;4972729;28;20033;-72
2021/09/16 10:44:03;;;;;;;8.57;5.93;;;;;;;16.87;99.21;98770.06;4972710;28;20090;-72
2021/09/16 10:46:40;;;;;;;6.78;5.93;;;;;;;16.77;100.00;98774.00;4972415;28;20436;-71
2021/09/16 10:49:21;;;;;;;7.00;5.80;;;;;;;16.22;100.00;98778.06;4972556;28;20506;-72
2021/09/16 10:51:59;;;;;;;9.18;7.20;;;;;;;16.46;100.00;98774.44;4954687;28;20027;-72
2021/09/16 10:54:27;;;;;;;8.30;7.07;;;;;;;16.67;100.00;98772.69;4953186;28;20031;-72
2021/09/16 10:56:59;;;;;;;8.60;6.55;;;;;;;16.42;97.30;98768.50;4953091;28;20532;-72
2021/09/16 10:59:49;;;;;;;7.47;6.70;;;;;;;16.79;98.63;98782.66;4953244;28;20084;-72
2021/09/16 11:02:22;;;;;;;8.85;7.20;;;;;;;16.35;97.39;98781.91;4954489;28;20107;-72
2021/09/16 11:04:57;;;;;;;8.82;7.88;;;;;;;16.46;99.40;98784.91;4964331;28;20019;-72
2021/09/16 11:07:34;;;;;;;12.23;7.85;;;;;;;16.61;97.46;98781.63;4972288;28;20132;-72
2021/09/16 11:10:15;;;;;;;12.18;8.48;;;;;;;16.81;97.91;98785.22;4972360;28;20023;-72
2021/09/16 11:12:54;;;;;;;9.07;8.18;;;;;;;16.87;97.89;98787.53;4972377;28;20282;-73
2021/09/16 11:15:28;;;;;;;9.50;7.90;;;;;;;17.02;98.30;98794.75;4972095;28;20023;-72
2021/09/16 11:18:14;;;;;;;18.10;10.77;;;;;;;16.94;96.33;98791.63;4972365;28;20030;-72
2021/09/16 11:20:42;;;;;;;14.98;11.45;;;;;;;16.62;98.27;98803.41;4966329;28;20023;-72
2021/09/16 11:23:08;;;;;;;18.60;11.13;;;;;;;16.85;98.48;98794.63;4956311;28;20477;-78
2021/09/16 11:25:42;;;;;;;20.30;12.65;;;;;;;16.58;99.17;98794.00;4956323;28;20039;-77
2021/09/16 11:28:08;;;;;;;19.25;12.45;;;;;;;16.44;99.09;98798.06;4956379;28;20027;-77
2021/09/16 11:30:39;;;;;;;19.23;11.20;;;;;;;16.37;95.44;98800.97;4956449;28;20030;-77
2021/09/16 11:33:13;;;;;;;27.52;17.40;;;;;;;16.88;95.66;98807.59;4963974;28;20113;-78
2021/09/16 11:35:39;;;;;;;19.85;12.77;;;;;;;17.00;95.24;98801.81;4968504;28;20031;-72
2021/09/16 11:38:06;;;;;;;16.92;13.15;;;;;;;16.75;93.94;98816.88;4975633;28;20023;-71
2021/09/16 11:40:34;;;;;;;19.35;13.35;;;;;;;16.34;97.90;98814.16;4975300;28;20081;-71
2021/09/16 11:43:05;;;;;;;22.35;14.77;;;;;;;16.49;97.72;98817.91;4975351;28;20057;-72
2021/09/16 11:45:34;;;;;;;21.95;14.32;;;;;;;16.16;98.17;98813.16;4975456;28;20019;-72
2021/09/16 11:48:14;;;;;;;21.02;14.57;;;;;;;16.11;100.00;98805.50;4975371;28;20054;-72
2021/09/16 11:50:44;;;;;;;18.67;14.02;;;;;;;16.19;98.98;98813.88;4966274;28;20027;-72
2021/09/16 11:53:18;;;;;;;20.95;13.27;;;;;;;16.44;98.52;98810.28;4955752;28;20031;-73
2021/09/16 11:55:48;;;;;;;16.15;11.93;;;;;;;16.65;98.49;98811.16;4955841;28;20027;-73
2021/09/16 11:58:16;;;;;;;16.73;11.63;;;;;;;16.85;98.05;98812.94;4955846;28;20037;-73
2021/09/16 12:00:57;;;;;;;19.05;13.10;;;;;;;16.88;94.58;98807.59;4955870;28;20366;-73
2021/09/16 12:03:28;;;;;;;18.20;11.35;;;;;;;16.97;96.49;98809.81;4963351;28;20031;-73
2021/09/16 12:06:03;;;;;;;13.43;10.82;;;;;;;16.96;96.45;98815.94;4969998;28;20069;-73
2021/09/16 12:08:36;;;;;;;17.17;10.80;;;;;;;17.31;93.27;98810.91;4974988;28;20053;-78
2021/09/16 12:11:21;;;;;;;14.80;9.80;;;;;;;17.72;91.42;98812.50;4975062;28;20496;-78
2021/09/16 12:13:46;;;;;;;17.83;10.63;;;;;;;17.98;88.42;98807.84;4974820;28;20424;-78
2021/09/16 12:16:23;;;;;;;17.48;12.45;;;;;;;18.23;87.73;98805.75;4974698;28;20034;-78
2021/09/16 12:19:00;;;;;;;14.80;9.70;;;;;;;18.32;87.69;98800.97;4975118;28;20053;-78
2021/09/16 12:21:32;;;;;;;12.68;9.70;;;;;;;18.37;84.97;98801.59;4959467;28;20027;-78
2021/09/16 12:24:12;;;;;;;11.48;10.05;;;;;;;18.20;88.27;98797.19;4955478;28;20023;-78
2021/09/16 12:26:42;;;;;;;12.13;8.80;;;;;;;18.32;88.22;98795.72;4955373;28;20421;-78
2021/09/16 12:29:13;;;;;;;10.98;8.95;;;;;;;18.36;84.57;98794.66;4955269;28;20027;-79
2021/09/16 12:31:46;;;;;;;13.30;9.05;;;;;;;18.52;86.25;98792.97;4954779;28;20023;-79
2021/09/16 12:34:14;;;;;;;14.73;9.30;;;;;;;18.75;85.94;98799.69;4963719;28;20119;-79
2021/09/16 12:36:59;;;;;;;13.55;10.02;;;;;;;18.09;86.37;98804.72;4974441;28;20069;-78
2021/09/16 12:39:28;;;;;;;13.10;10.48;;;;;;;18.32;86.54;98796.56;4974391;28;20022;-79
2021/09/16 12:42:01;;;;;;;15.52;10.55;;;;;;;18.44;85.26;98789.88;4974171;28;20027;-79
2021/09/16 12:44:29;;;;;;;11.38;9.77;;;;;;;18.37;86.53;98778.84;4974305;28;20027;-76
2021/09/16 12:46:57;;;;;;;14.20;10.90;;;;;;;18.02;86.08;98770.06;4974248;28;20030;-78
2021/09/16 12:49:50;;;;;;;13.93;9.85;;;;;;;18.11;85.92;98767.00;4974192;28;20109;-78
2021/09/16 12:52:31;;;;;;;12.60;9.25;;;;;;;18.07;85.00;98775.94;4955768;28;20031;-78
2021/09/16 12:55:02;;;;;;;13.35;9.82;;;;;;;17.80;88.56;98780.75;4955407;28;20031;-78
2021/09/16 12:57:33;;;;;;;14.23;11.30;;;;;;;17.86;86.97;98782.22;4954027;28;20495;-78
2021/09/16 13:00:06;;;;;;;13.95;10.57;;;;;;;17.55;87.92;98788.00;4954730;28;20031;-78
2021/09/16 13:02:43;;;;;;;11.95;9.75;;;;;;;17.53;87.11;98795.94;4959413;28;20079;-78
2021/09/16 13:05:20;;;;;;;14.45;10.75;;;;;;;17.78;87.12;98790.44;4971344;28;20030;-78
2021/09/16 13:08:26;;;;;;;16.42;11.13;;;;;;;17.99;88.21;98793.81;4973488;28;20480;-78
2021/09/16 13:10:52;;;;;;;14.52;11.10;;;;;;;18.22;84.21;98775.19;4974448;28;20027;-78
2021/09/16 13:13:26;;;;;;;20.50;10.90;;;;;;;18.29;83.26;98777.53;4974352;28;20030;-78
2021/09/16 13:15:53;;;;;;;18.05;9.75;;;;;;;18.15;83.80;98779.03;4974045;28;20062;-78
2021/09/16 13:18:18;;;;;;;15.35;10.43;;;;;;;18.02;88.06;98783.19;4974168;28;20026;-78
2021/09/16 13:20:44;;;;;;;15.25;11.40;;;;;;;17.95;86.07;98784.41;4964218;28;20496;-78
2021/09/16 13:23:13;;;;;;;14.50;11.10;;;;;;;17.73;87.13;98781.94;4954689;28;20023;-76
2021/09/16 13:25:39;;;;;;;;;;;;;;;17.65;89.35;98784.91;4954540;28;20035;-76
2021/09/16 13:28:05;;;;;;;17.60;11.48;;;;;;;17.78;89.35;98773.84;4954390;28;19910;-76
2021/09/16 13:30:30;;;;;;;15.43;10.73;;;;;;;17.85;87.62;98781.38;4954169;28;20038;-77
2021/09/16 13:32:56;;;;;;;16.77;11.35;;;;;;;17.93;85.42;98768.72;4960712;28;20073;-76
2021/09/16 13:35:21;;;;;;;17.92;11.40;;;;;;;17.89;86.47;98780.31;4965111;28;20026;-76
2021/09/16 13:37:47;;;;;;;13.70;10.48;;;;;;;17.96;85.02;98778.22;4973554;28;20383;-76
2021/09/16 13:40:14;;;;;;;19.85;11.65;;;;;;;17.93;85.67;98781.84;4973487;28;20038;-76
2021/09/16 13:42:40;;;;;;;16.58;10.75;;;;;;;17.83;88.99;98784.97;4972477;28;20480;-76
2021/09/16 13:45:07;;;;;;;17.35;10.52;;;;;;;17.77;88.14;98782.66;4973295;28;20386;-77
2021/09/16 13:47:32;;;;;;;15.70;11.23;;;;;;;17.72;87.48;98783.69;4973136;28;20034;-76
2021/09/16 13:49:59;;;;;;;15.20;11.57;;;;;;;17.46;90.00;98778.81;4973408;28;20499;-76
2021/09/16 13:52:24;;;;;;;17.35;10.23;;;;;;;17.82;87.43;98775.41;4973036;28;20399;-76
2021/09/16 13:54:50;;;;;;;18.33;11.82;;;;;;;17.83;86.62;98772.72;4973322;28;20122;-77
2021/09/16 13:57:15;;;;;;;16.65;11.57;;;;;;;17.71;87.17;98774.13;4971971;28;20117;-77
2021/09/16 13:59:40;;;;;;;18.83;12.30;;;;;;;17.30;91.45;98783.03;4973248;28;20022;-77
2021/09/16 14:02:06;;;;;;;18.48;12.25;;;;;;;17.53;87.83;98785.47;4968129;28;20087;-77
2021/09/16 14:04:31;;;;;;;16.48;11.60;;;;;;;17.46;89.90;98784.06;4964986;28;20022;-77
2021/09/16 14:06:57;;;;;;;15.48;11.93;;;;;;;17.42;90.28;98787.72;4973145;28;20041;-77
2021/09/16 14:09:22;;;;;;;15.77;11.82;;;;;;;18.14;86.71;98779.13;4973378;28;20035;-77
2021/09/16 14:11:48;;;;;;;13.07;11.48;;;;;;;18.36;83.15;98784.16;4972861;28;20031;-77
2021/09/16 14:14:13;;;;;;;14.25;11.13;;;;;;;18.37;82.15;98784.09;4973157;28;20085;-77
2021/09/16 14:16:39;;;;;;;16.42;12.68;;;;;;;18.74;81.87;98790.97;4972970;28;20345;-76
2021/09/16 14:19:04;;;;;;;13.88;10.93;;;;;;;18.54;81.95;98785.88;4972895;28;20434;-77
2021/09/16 14:21:34;;;;;;;17.20;11.85;;;;;;;18.12;81.71;98779.19;4957154;28;20023;-77
2021/09/16 14:24:00;;;;;;;16.65;11.55;;;;;;;18.17;82.38;98771.94;4953866;28;20487;-77
2021/09/16 14:26:25;;;;;;;11.88;9.80;;;;;;;18.35;84.23;98769.34;4953723;28;20114;-77
2021/09/16 14:28:50;;;;;;;12.05;10.18;;;;;;;18.21;82.76;98767.41;4953544;28;20030;-76
2021/09/16 14:31:16;;;;;;;20.15;10.65;;;;;;;18.21;84.18;98763.00;4953496;28;20110;-77
2021/09/16 14:33:41;;;;;;;14.90;10.95;;;;;;;17.93;82.45;98773.13;4961208;28;20078;-76
2021/09/16 14:36:06;;;;;;;14.15;10.73;;;;;;;18.58;80.61;98760.31;4969558;28;20062;-76
2021/09/16 14:38:32;;;;;;;13.32;11.18;;;;;;;18.58;79.35;98755.91;4972903;28;20114;-76
2021/09/16 14:40:57;;;;;;;11.80;9.80;;;;;;;18.94;78.15;98757.59;4972838;28;20536;-77
2021/09/16 14:43:22;;;;;;;15.50;10.38;;;;;;;18.81;79.51;98767.03;4971349;28;20494;-76
2021/09/16 14:45:48;;;;;;;15.93;10.75;;;;;;;18.68;80.67;98757.19;4972574;28;20030;-76
2021/09/16 14:48:13;;;;;;;13.63;10.73;;;;;;;18.67;82.29;98765.09;4972576;28;20027;-76
2021/09/16 14:50:38;;;;;;;13.80;10.75;;;;;;;18.61;79.24;98765.41;4963693;28;20077;-76
2021/09/16 14:53:05;;;;;;;12.30;9.95;;;;;;;18.52;80.16;98771.09;4954105;28;20167;-76
2021/09/16 14:55:30;;;;;;;14.35;10.52;;;;;;;18.53;81.45;98767.59;4956833;28;20077;-76
2021/09/16 14:57:56;;;;;;;26.83;20.35;;;;;;;18.41;79.31;98759.38;4957038;28;20027;-76
2021/09/16 15:00:21;;;;;;;17.33;11.60;;;;;;;18.50;80.81;98763.31;4956852;28;20042;-76
2021/09/16 15:02:49;;;;;;;11.93;10.43;;;;;;;18.65;78.85;98767.78;4962081;28;20030;-76
2021/09/16 15:05:15;;;;;;;15.07;9.80;;;;;;;18.64;80.64;98760.84;4967904;28;20101;-76
2021/09/16 15:07:40;;;;;;;14.35;10.52;;;;;;;18.69;77.85;98764.13;4976116;28;20098;-76
2021/09/16 15:10:06;;;;;;;11.23;9.48;;;;;;;18.60;79.66;98764.56;4976059;28;20030;-76
2021/09/16 15:12:31;;;;;;;15.40;10.25;;;;;;;18.39;81.50;98766.50;4975888;28;20045;-76
2021/09/16 15:14:57;;;;;;;12.85;9.90;;;;;;;18.58;79.11;98755.91;4975896;28;20027;-76
2021/09/16 15:17:22;;;;;;;12.57;10.32;;;;;;;18.41;80.94;98753.28;4975691;28;20506;-76
2021/09/16 15:19:47;;;;;;;12.02;10.43;;;;;;;18.38;82.41;98762.19;4973678;28;20022;-77
2021/09/16 15:22:13;;;;;;;10.93;9.73;;;;;;;18.27;80.16;98761.00;4956476;28;20041;-76
2021/09/16 15:24:38;;;;;;;14.20;9.75;;;;;;;17.83;81.79;98771.88;4956506;28;20023;-76
2021/09/16 15:27:04;;;;;;;11.27;9.50;;;;;;;18.08;83.86;98756.66;4956861;28;20038;-76
2021/09/16 15:29:29;;;;;;;10.07;8.95;;;;;;;18.16;80.73;98764.16;4956466;28;20432;-76
2021/09/16 15:31:54;;;;;;;17.42;9.10;;;;;;;17.87;81.97;98757.69;4954851;28;20023;-76
2021/09/16 15:34:21;;;;;;;10.70;9.52;;;;;;;17.82;81.99;98767.56;4966075;28;20030;-76
2021/09/16 15:36:47;;;;;;;10.07;8.88;;;;;;;17.98;81.50;98763.25;4975511;28;20034;-76
2021/09/16 15:39:14;;;;;;;9.93;8.75;;;;;;;17.88;84.39;98760.25;4975552;28;20492;-76
2021/09/16 15:41:39;;;;;;;14.27;9.68;;;;;;;17.81;85.96;98773.72;4975442;28;20373;-77